createdAt,value
2019-03-28T00:00:49.637Z,70.32
2019-03-28T00:01:49.605Z,70.43
2019-03-28T00:02:49.592Z,71.26
2019-03-28T00:03:49.581Z,70.64
2019-03-28T00:04:49.580Z,70.85
2019-03-28T00:06:02.561Z,71.48
2019-03-28T00:06:49.560Z,71.58
2019-03-28T00:07:49.543Z,71.89
2019-03-28T00:08:49.539Z,72.74
2019-03-28T00:09:49.534Z,72.28
2019-03-28T00:10:49.559Z,72.07
2019-03-28T00:11:49.657Z,72.18
2019-03-28T00:12:49.488Z,71.44
2019-03-28T00:13:49.485Z,72.39
2019-03-28T00:14:49.474Z,72.60
2019-03-28T00:15:49.461Z,72.70
2019-03-28T00:16:49.457Z,71.55
2019-03-28T00:17:49.441Z,70.92
2019-03-28T00:18:49.430Z,70.50
2019-03-28T00:19:49.422Z,70.29
2019-03-28T00:20:49.451Z,70.18
2019-03-28T00:21:49.403Z,70.22
2019-03-28T00:22:49.389Z,70.61
2019-03-28T00:23:49.386Z,70.71
2019-03-28T00:24:49.365Z,71.03
2019-03-28T00:25:49.358Z,70.75
2019-03-28T00:26:49.381Z,70.95
2019-03-28T00:27:49.335Z,71.13
2019-03-28T00:28:49.327Z,70.92
2019-03-28T00:29:49.314Z,71.06
2019-03-28T00:30:49.303Z,71.03
2019-03-28T00:31:49.293Z,70.92
2019-03-28T00:32:49.457Z,70.18
2019-03-28T00:33:49.279Z,70.81
2019-03-28T00:34:49.260Z,70.29
2019-03-28T00:35:49.253Z,70.43
2019-03-28T00:36:59.134Z,71.16
2019-03-28T00:37:49.232Z,71.58
2019-03-28T00:38:49.298Z,70.95
2019-03-28T00:39:49.212Z,71.72
2019-03-28T00:40:49.200Z,72.03
2019-03-28T00:41:49.193Z,72.56
2019-03-28T00:42:49.187Z,72.14
2019-03-28T00:43:49.168Z,72.24
2019-03-28T00:44:49.193Z,72.14
2019-03-28T00:45:49.153Z,72.03
2019-03-28T00:46:49.140Z,72.14
2019-03-28T00:47:49.130Z,72.38
2019-03-28T00:48:49.160Z,72.66
2019-03-28T00:49:49.103Z,72.87
2019-03-28T00:50:49.093Z,72.56
2019-03-28T00:51:49.084Z,72.69
2019-03-28T00:52:49.081Z,72.69
2019-03-28T00:53:49.065Z,73.39
2019-03-28T00:54:49.065Z,73.29
2019-03-28T00:55:49.044Z,73.71
2019-03-28T00:56:49.033Z,73.82
2019-03-28T00:57:49.020Z,73.50
2019-03-28T00:58:49.013Z,73.29
2019-03-28T00:59:49.302Z,74.30
2019-03-28T01:00:49.024Z,73.61
2019-03-28T01:01:48.982Z,73.39
2019-03-28T01:02:48.970Z,73.08
2019-03-28T01:03:48.959Z,72.77
2019-03-28T01:04:48.946Z,72.66
2019-03-28T01:05:48.943Z,73.19
2019-03-28T01:06:48.934Z,73.08
2019-03-28T01:08:00.010Z,73.82
2019-03-28T01:08:48.904Z,75.29
2019-03-28T01:09:48.892Z,74.44
2019-03-28T01:10:48.898Z,72.87
2019-03-28T01:11:48.872Z,72.66
2019-03-28T01:12:48.865Z,72.77
2019-03-28T01:13:48.858Z,73.19
2019-03-28T01:14:48.848Z,72.87
2019-03-28T01:15:49.277Z,72.98
2019-03-28T01:16:48.826Z,72.87
2019-03-28T01:17:48.818Z,72.87
2019-03-28T01:18:48.798Z,72.74
2019-03-28T01:19:48.792Z,72.42
2019-03-28T01:20:48.789Z,73.99
2019-03-28T01:21:48.775Z,73.57
2019-03-28T01:22:48.774Z,72.74
2019-03-28T01:23:48.753Z,72.11
2019-03-28T01:24:48.747Z,72.21
2019-03-28T01:25:48.726Z,72.11
2019-03-28T01:26:57.133Z,72.14
2019-03-28T01:27:50.266Z,72.34
2019-03-28T01:28:48.701Z,72.66
2019-03-28T01:29:48.685Z,72.77
2019-03-28T01:30:48.681Z,72.87
2019-03-28T01:31:48.672Z,74.30
2019-03-28T01:32:48.655Z,75.35
2019-03-28T01:33:48.657Z,74.93
2019-03-28T01:34:48.641Z,73.15
2019-03-28T01:35:48.622Z,73.15
2019-03-28T01:36:48.617Z,72.84
2019-03-28T01:37:48.607Z,73.36
2019-03-28T01:38:59.770Z,73.36
2019-03-28T01:39:48.584Z,73.26
2019-03-28T01:40:48.573Z,73.44
2019-03-28T01:41:48.558Z,73.47
2019-03-28T01:42:48.548Z,73.85
2019-03-28T01:43:48.545Z,72.74
2019-03-28T01:44:48.568Z,72.91
2019-03-28T01:45:48.517Z,72.81
2019-03-28T01:46:48.512Z,73.33
2019-03-28T01:47:48.499Z,73.54
2019-03-28T01:48:48.485Z,73.12
2019-03-28T01:49:48.475Z,73.50
2019-03-28T01:50:48.507Z,73.54
2019-03-28T01:51:48.460Z,72.67
2019-03-28T01:52:48.445Z,72.56
2019-03-28T01:53:48.439Z,72.46
2019-03-28T01:54:48.420Z,72.35
2019-03-28T01:55:48.408Z,72.77
2019-03-28T01:56:48.409Z,72.56
2019-03-28T01:57:48.394Z,72.25
2019-03-28T01:58:48.387Z,72.39
2019-03-28T01:59:48.371Z,72.70
2019-03-28T02:00:48.365Z,72.60
2019-03-28T02:01:48.385Z,72.60
2019-03-28T02:02:48.336Z,73.26
2019-03-28T02:03:48.331Z,73.26
2019-03-28T02:04:48.314Z,73.15
2019-03-28T02:05:48.310Z,73.29
2019-03-28T02:06:48.301Z,73.61
2019-03-28T02:07:48.343Z,73.92
2019-03-28T02:08:48.280Z,74.44
2019-03-28T02:09:58.515Z,74.06
2019-03-28T02:10:48.256Z,74.34
2019-03-28T02:11:48.245Z,74.48
2019-03-28T02:12:48.235Z,74.48
2019-03-28T02:13:48.240Z,75.01
2019-03-28T02:14:48.215Z,74.65
2019-03-28T02:15:48.200Z,75.63
2019-03-28T02:16:48.203Z,76.05
2019-03-28T02:17:48.186Z,76.43
2019-03-28T02:18:48.178Z,76.86
2019-03-28T02:19:48.161Z,76.43
2019-03-28T02:20:48.155Z,77.28
2019-03-28T02:21:48.140Z,76.75
2019-03-28T02:22:48.129Z,76.54
2019-03-28T02:23:48.163Z,75.92
2019-03-28T02:24:48.107Z,76.51
2019-03-28T02:25:48.102Z,75.98
2019-03-28T02:26:48.090Z,76.19
2019-03-28T02:27:48.076Z,75.04
2019-03-28T02:28:48.067Z,75.11
2019-03-28T02:29:48.070Z,75.32
2019-03-28T02:30:48.082Z,75.11
2019-03-28T02:31:48.036Z,75.21
2019-03-28T02:32:48.028Z,74.48
2019-03-28T02:33:48.023Z,74.80
2019-03-28T02:34:49.104Z,75.43
2019-03-28T02:35:47.992Z,74.80
2019-03-28T02:36:47.990Z,74.38
2019-03-28T02:37:47.970Z,74.73
2019-03-28T02:38:47.967Z,74.83
2019-03-28T02:39:47.947Z,75.15
2019-03-28T02:40:58.868Z,75.04
2019-03-28T02:41:47.939Z,75.56
2019-03-28T02:42:47.920Z,75.46
2019-03-28T02:43:47.908Z,75.15
2019-03-28T02:44:47.895Z,74.83
2019-03-28T02:45:47.895Z,75.01
2019-03-28T02:46:47.892Z,75.46
2019-03-28T02:47:47.879Z,75.25
2019-03-28T02:48:47.881Z,75.25
2019-03-28T02:49:47.848Z,74.93
2019-03-28T02:50:47.839Z,75.15
2019-03-28T02:51:47.834Z,76.43
2019-03-28T02:52:47.858Z,76.12
2019-03-28T02:53:47.809Z,76.75
2019-03-28T02:54:47.802Z,76.12
2019-03-28T02:55:47.789Z,76.96
2019-03-28T02:56:47.783Z,75.92
2019-03-28T02:57:47.761Z,75.92
2019-03-28T02:58:47.764Z,76.12
2019-03-28T02:59:47.741Z,76.02
2019-03-28T03:00:48.075Z,76.02
2019-03-28T03:01:47.729Z,75.81
2019-03-28T03:02:47.714Z,75.60
2019-03-28T03:03:47.877Z,75.70
2019-03-28T03:04:47.686Z,75.92
2019-03-28T03:05:47.686Z,76.23
2019-03-28T03:06:47.672Z,76.96
2019-03-28T03:07:47.662Z,76.43
2019-03-28T03:08:47.649Z,76.86
2019-03-28T03:09:47.685Z,76.54
2019-03-28T03:10:47.637Z,76.12
2019-03-28T03:11:57.783Z,76.47
2019-03-28T03:12:47.603Z,76.47
2019-03-28T03:13:47.599Z,76.43
2019-03-28T03:14:47.590Z,77.10
2019-03-28T03:15:47.609Z,76.79
2019-03-28T03:16:48.828Z,77.17
2019-03-28T03:17:47.559Z,77.10
2019-03-28T03:18:47.577Z,76.89
2019-03-28T03:19:47.547Z,76.89
2019-03-28T03:20:47.522Z,77.31
2019-03-28T03:21:47.548Z,77.42
2019-03-28T03:22:47.506Z,77.52
2019-03-28T03:23:47.492Z,77.28
2019-03-28T03:24:47.507Z,77.42
2019-03-28T03:25:47.471Z,77.00
2019-03-28T03:26:47.462Z,76.79
2019-03-28T03:27:57.718Z,76.79
2019-03-28T03:28:48.438Z,77.42
2019-03-28T03:29:47.425Z,77.52
2019-03-28T03:30:47.434Z,77.73
2019-03-28T03:31:47.422Z,78.57
2019-03-28T03:32:47.408Z,78.57
2019-03-28T03:33:47.393Z,78.57
2019-03-28T03:34:47.387Z,78.67
2019-03-28T03:35:47.363Z,78.71
2019-03-28T03:36:47.385Z,78.39
2019-03-28T03:37:47.516Z,78.39
2019-03-28T03:38:47.777Z,78.61
2019-03-28T03:39:47.324Z,78.78
2019-03-28T03:40:47.323Z,78.47
2019-03-28T03:41:47.300Z,79.10
2019-03-28T03:42:57.703Z,78.25
2019-03-28T03:43:47.287Z,78.89
2019-03-28T03:44:47.275Z,78.78
2019-03-28T03:45:47.263Z,78.71
2019-03-28T03:46:47.246Z,78.78
2019-03-28T03:47:47.264Z,78.67
2019-03-28T03:48:47.255Z,78.67
2019-03-28T03:49:47.220Z,78.81
2019-03-28T03:50:47.218Z,78.89
2019-03-28T03:51:47.196Z,78.67
2019-03-28T03:52:47.297Z,78.67
2019-03-28T03:53:47.188Z,79.10
2019-03-28T03:54:47.219Z,78.67
2019-03-28T03:55:47.177Z,79.10
2019-03-28T03:56:47.160Z,79.41
2019-03-28T03:57:47.135Z,79.10
2019-03-28T03:58:47.135Z,78.99
2019-03-28T03:59:47.121Z,78.89
2019-03-28T04:00:47.119Z,79.24
2019-03-28T04:01:47.092Z,78.89
2019-03-28T04:02:47.108Z,78.99
2019-03-28T04:03:47.079Z,78.67
2019-03-28T04:04:47.741Z,78.67
2019-03-28T04:05:47.069Z,78.89
2019-03-28T04:06:47.041Z,79.10
2019-03-28T04:07:47.029Z,79.10
2019-03-28T04:08:47.032Z,78.99
2019-03-28T04:09:47.020Z,79.72
2019-03-28T04:10:47.011Z,79.72
2019-03-28T04:11:46.993Z,79.41
2019-03-28T04:12:46.984Z,79.20
2019-03-28T04:13:57.340Z,79.52
2019-03-28T04:14:46.957Z,79.93
2019-03-28T04:15:46.985Z,79.52
2019-03-28T04:16:46.937Z,79.72
2019-03-28T04:17:47.726Z,79.62
2019-03-28T04:18:46.941Z,79.20
2019-03-28T04:19:46.911Z,79.20
2019-03-28T04:20:46.897Z,79.41
2019-03-28T04:21:46.944Z,79.52
2019-03-28T04:22:46.879Z,79.20
2019-03-28T04:23:46.864Z,78.99
2019-03-28T04:24:47.724Z,79.62
2019-03-28T04:25:46.849Z,79.20
2019-03-28T04:26:46.850Z,79.20
2019-03-28T04:27:47.070Z,79.10
2019-03-28T04:28:46.814Z,79.06
2019-03-28T04:29:46.803Z,79.06
2019-03-28T04:30:46.829Z,78.85
2019-03-28T04:31:46.788Z,78.64
2019-03-28T04:32:47.011Z,78.74
2019-03-28T04:33:46.774Z,78.47
2019-03-28T04:34:46.751Z,78.99
2019-03-28T04:35:46.741Z,78.99
2019-03-28T04:36:46.728Z,79.41
2019-03-28T04:37:46.758Z,79.72
2019-03-28T04:38:46.724Z,79.62
2019-03-28T04:39:46.708Z,79.58
2019-03-28T04:40:46.691Z,79.41
2019-03-28T04:41:46.679Z,79.52
2019-03-28T04:42:46.672Z,79.41
2019-03-28T04:43:46.697Z,79.72
2019-03-28T04:44:57.401Z,79.41
2019-03-28T04:45:46.639Z,79.48
2019-03-28T04:46:46.627Z,79.16
2019-03-28T04:47:46.613Z,79.52
2019-03-28T04:48:46.607Z,79.48
2019-03-28T04:49:46.624Z,79.06
2019-03-28T04:50:46.582Z,78.60
2019-03-28T04:51:46.578Z,79.02
2019-03-28T04:52:46.580Z,78.67
2019-03-28T04:53:46.576Z,78.15
2019-03-28T04:54:46.544Z,78.67
2019-03-28T04:55:47.252Z,78.39
2019-03-28T04:56:46.524Z,78.25
2019-03-28T04:57:46.528Z,77.42
2019-03-28T04:58:46.515Z,77.00
2019-03-28T04:59:46.659Z,77.83
2019-03-28T05:00:46.576Z,77.10
2019-03-28T05:01:59.706Z,76.79
2019-03-28T05:02:47.462Z,76.37
2019-03-28T05:03:46.454Z,76.40
2019-03-28T05:04:46.439Z,76.93
2019-03-28T05:05:46.431Z,78.50
2019-03-28T05:06:46.416Z,78.29
2019-03-28T05:07:46.407Z,78.60
2019-03-28T05:08:46.397Z,76.79
2019-03-28T05:09:46.568Z,76.93
2019-03-28T05:10:46.373Z,77.42
2019-03-28T05:11:46.360Z,77.14
2019-03-28T05:12:46.354Z,77.42
2019-03-28T05:13:46.357Z,77.73
2019-03-28T05:14:46.334Z,77.62
2019-03-28T05:15:57.767Z,76.79
2019-03-28T05:16:46.308Z,76.47
2019-03-28T05:17:46.300Z,77.31
2019-03-28T05:18:46.287Z,77.31
2019-03-28T05:19:46.275Z,76.57
2019-03-28T05:20:46.291Z,77.31
2019-03-28T05:21:46.264Z,76.79
2019-03-28T05:22:46.243Z,76.68
2019-03-28T05:23:46.241Z,76.68
2019-03-28T05:24:46.223Z,77.17
2019-03-28T05:25:46.224Z,76.65
2019-03-28T05:26:46.215Z,76.86
2019-03-28T05:27:46.195Z,76.86
2019-03-28T05:28:56.988Z,76.40
2019-03-28T05:29:47.172Z,76.44
2019-03-28T05:30:46.160Z,76.30
2019-03-28T05:31:46.159Z,76.82
2019-03-28T05:32:46.141Z,76.93
2019-03-28T05:33:46.126Z,76.93
2019-03-28T05:34:46.119Z,76.82
2019-03-28T05:35:46.119Z,76.47
2019-03-28T05:36:46.129Z,76.79
2019-03-28T05:37:46.091Z,76.37
2019-03-28T05:38:46.074Z,76.26
2019-03-28T05:39:46.068Z,76.26
2019-03-28T05:40:46.054Z,76.23
2019-03-28T05:41:46.054Z,76.47
2019-03-28T05:42:46.071Z,76.47
2019-03-28T05:43:46.025Z,76.16
2019-03-28T05:44:46.012Z,76.86
2019-03-28T05:45:47.621Z,76.44
2019-03-28T05:46:56.150Z,77.06
2019-03-28T05:47:45.978Z,76.65
2019-03-28T05:48:45.983Z,77.06
2019-03-28T05:49:45.966Z,75.92
2019-03-28T05:50:45.949Z,76.02
2019-03-28T05:51:45.940Z,75.88
2019-03-28T05:52:45.927Z,75.78
2019-03-28T05:53:46.525Z,75.36
2019-03-28T05:54:45.909Z,74.84
2019-03-28T05:55:45.897Z,74.59
2019-03-28T05:56:45.892Z,74.18
2019-03-28T05:57:45.879Z,74.38
2019-03-28T05:58:46.043Z,74.73
2019-03-28T05:59:45.851Z,74.94
2019-03-28T06:00:45.848Z,74.42
2019-03-28T06:01:45.842Z,74.59
2019-03-28T06:02:45.828Z,74.49
2019-03-28T06:03:45.813Z,74.84
2019-03-28T06:04:45.974Z,74.84
2019-03-28T06:05:45.790Z,75.36
2019-03-28T06:06:45.783Z,75.88
2019-03-28T06:07:45.776Z,75.32
2019-03-28T06:08:45.768Z,75.32
2019-03-28T06:09:45.747Z,74.69
2019-03-28T06:10:45.808Z,74.59
2019-03-28T06:11:45.723Z,74.80
2019-03-28T06:12:45.720Z,75.01
2019-03-28T06:13:45.717Z,75.32
2019-03-28T06:14:45.701Z,75.15
2019-03-28T06:15:45.699Z,75.22
2019-03-28T06:16:45.680Z,74.87
2019-03-28T06:17:55.971Z,75.18
2019-03-28T06:18:46.342Z,74.87
2019-03-28T06:19:45.642Z,74.38
2019-03-28T06:20:45.631Z,75.12
2019-03-28T06:21:45.788Z,74.73
2019-03-28T06:22:45.708Z,75.32
2019-03-28T06:23:45.597Z,74.59
2019-03-28T06:24:45.597Z,74.91
2019-03-28T06:25:45.586Z,75.50
2019-03-28T06:26:45.586Z,75.22
2019-03-28T06:27:45.567Z,74.35
2019-03-28T06:28:45.546Z,73.90
2019-03-28T06:29:45.546Z,75.29
2019-03-28T06:30:45.543Z,74.11
2019-03-28T06:31:55.298Z,73.90
2019-03-28T06:32:46.544Z,73.24
2019-03-28T06:33:45.499Z,73.00
2019-03-28T06:34:45.486Z,72.89
2019-03-28T06:35:45.479Z,72.34
2019-03-28T06:36:45.459Z,71.30
2019-03-28T06:37:45.463Z,71.78
2019-03-28T06:38:45.453Z,71.50
2019-03-28T06:39:45.435Z,71.81
2019-03-28T06:40:45.432Z,72.27
2019-03-28T06:41:45.420Z,71.95
2019-03-28T06:42:45.409Z,72.13
2019-03-28T06:43:45.434Z,71.09
2019-03-28T06:44:45.382Z,70.81
2019-03-28T06:45:45.368Z,69.46
2019-03-28T06:46:46.370Z,69.43
2019-03-28T06:47:45.343Z,69.64
2019-03-28T06:48:57.298Z,68.60
2019-03-28T06:49:45.365Z,68.60
2019-03-28T06:50:45.315Z,68.04
2019-03-28T06:51:45.311Z,68.12
2019-03-28T06:52:45.291Z,67.63
2019-03-28T06:53:45.287Z,67.55
2019-03-28T06:54:45.276Z,67.97
2019-03-28T06:55:45.298Z,68.49
2019-03-28T06:56:45.265Z,68.60
2019-03-28T06:57:45.246Z,68.25
2019-03-28T06:58:45.235Z,68.28
2019-03-28T06:59:45.220Z,68.60
2019-03-28T07:00:45.242Z,69.53
2019-03-28T07:01:45.202Z,67.86
2019-03-28T07:02:45.185Z,68.28
2019-03-28T07:03:47.373Z,69.46
2019-03-28T07:04:45.172Z,69.32
2019-03-28T07:05:45.161Z,67.94
2019-03-28T07:06:45.168Z,66.45
2019-03-28T07:07:45.136Z,67.21
2019-03-28T07:08:45.131Z,67.32
2019-03-28T07:09:45.109Z,67.21
2019-03-28T07:10:45.106Z,68.07
2019-03-28T07:11:45.092Z,68.73
2019-03-28T07:12:45.103Z,69.28
2019-03-28T07:13:45.070Z,69.70
2019-03-28T07:14:45.058Z,69.56
2019-03-28T07:15:45.064Z,68.94
2019-03-28T07:16:45.184Z,69.25
2019-03-28T07:17:45.031Z,69.38
2019-03-28T07:18:45.031Z,69.81
2019-03-28T07:19:54.935Z,69.70
2019-03-28T07:20:45.000Z,69.98
2019-03-28T07:21:45.033Z,69.53
2019-03-28T07:22:46.144Z,68.04
2019-03-28T07:23:45.002Z,67.42
2019-03-28T07:24:44.952Z,68.60
2019-03-28T07:25:44.945Z,68.52
2019-03-28T07:26:44.930Z,69.53
2019-03-28T07:27:44.920Z,69.43
2019-03-28T07:28:44.915Z,69.43
2019-03-28T07:29:50.687Z,69.46
2019-03-28T07:30:45.888Z,69.67
2019-03-28T07:31:44.889Z,69.71
2019-03-28T07:32:44.870Z,67.80
2019-03-28T07:33:44.863Z,67.91
2019-03-28T07:34:44.893Z,68.04
2019-03-28T07:35:44.841Z,67.88
2019-03-28T07:36:44.827Z,67.64
2019-03-28T07:37:44.813Z,67.22
2019-03-28T07:38:44.804Z,67.60
2019-03-28T07:39:44.797Z,68.01
2019-03-28T07:40:44.824Z,68.04
2019-03-28T07:41:44.788Z,67.94
2019-03-28T07:42:44.796Z,67.70
2019-03-28T07:43:44.754Z,67.64
2019-03-28T07:44:44.744Z,66.50
2019-03-28T07:45:44.745Z,64.90
2019-03-28T07:46:47.511Z,65.53
2019-03-28T07:47:44.736Z,62.76
2019-03-28T07:48:44.701Z,58.48
2019-03-28T07:49:45.500Z,56.03
2019-03-28T07:50:57.109Z,55.05
2019-03-28T07:51:44.661Z,51.91
2019-03-28T07:52:44.663Z,51.24
2019-03-28T07:53:44.648Z,51.34
2019-03-28T07:54:44.637Z,56.26
2019-03-28T07:55:44.792Z,59.58
2019-03-28T07:56:44.629Z,60.22
2019-03-28T07:57:44.604Z,62.05
2019-03-28T07:58:44.589Z,63.16
2019-03-28T07:59:44.580Z,61.86
2019-03-28T08:00:44.571Z,61.68
2019-03-28T08:01:44.587Z,61.68
2019-03-28T08:02:44.559Z,61.65
2019-03-28T08:03:44.535Z,60.38
2019-03-28T08:04:44.523Z,59.91
2019-03-28T08:05:44.558Z,60.77
2019-03-28T08:06:50.035Z,61.52
2019-03-28T08:07:46.452Z,61.55
2019-03-28T08:08:44.489Z,62.64
2019-03-28T08:09:51.451Z,64.23
2019-03-28T08:10:44.459Z,65.39
2019-03-28T08:11:44.489Z,65.06
2019-03-28T08:12:44.446Z,65.03
2019-03-28T08:13:51.414Z,64.12
2019-03-28T08:14:44.419Z,64.37
2019-03-28T08:15:44.407Z,63.57
2019-03-28T08:16:44.398Z,63.44
2019-03-28T08:17:44.468Z,62.87
2019-03-28T08:18:45.394Z,61.49
2019-03-28T08:19:44.367Z,60.91
2019-03-28T08:20:44.360Z,59.60
2019-03-28T08:21:44.342Z,59.83
2019-03-28T08:22:44.335Z,61.80
2019-03-28T08:23:44.362Z,61.90
2019-03-28T08:24:44.373Z,61.52
2019-03-28T08:25:44.296Z,62.48
2019-03-28T08:26:44.288Z,63.31
2019-03-28T08:27:44.490Z,62.87
2019-03-28T08:28:44.275Z,59.34
2019-03-28T08:29:44.265Z,58.15
2019-03-28T08:30:45.504Z,56.13
2019-03-28T08:31:44.232Z,56.44
2019-03-28T08:32:44.230Z,56.16
2019-03-28T08:33:44.252Z,56.05
2019-03-28T08:34:44.720Z,56.18
2019-03-28T08:35:44.195Z,56.16
2019-03-28T08:36:44.181Z,57.11
2019-03-28T08:37:44.191Z,56.13
2019-03-28T08:38:44.167Z,54.41
2019-03-28T08:39:44.626Z,52.37
2019-03-28T08:40:44.156Z,51.09
2019-03-28T08:41:44.128Z,50.78
2019-03-28T08:42:44.120Z,50.66
2019-03-28T08:43:44.107Z,50.14
2019-03-28T08:44:54.180Z,48.91
2019-03-28T08:45:44.127Z,48.68
2019-03-28T08:46:44.075Z,52.14
2019-03-28T08:47:44.069Z,54.77
2019-03-28T08:48:44.052Z,55.59
2019-03-28T08:49:44.040Z,55.74
2019-03-28T08:50:44.034Z,56.05
2019-03-28T08:51:44.056Z,56.31
2019-03-28T08:52:44.011Z,58.25
2019-03-28T08:53:43.997Z,58.25
2019-03-28T08:54:43.995Z,57.60
2019-03-28T08:55:43.971Z,58.45
2019-03-28T08:56:43.976Z,57.57
2019-03-28T08:57:43.994Z,55.85
2019-03-28T08:58:43.948Z,53.71
2019-03-28T08:59:43.946Z,53.53
2019-03-28T09:00:51.629Z,52.06
2019-03-28T09:01:44.919Z,52.71
2019-03-28T09:02:43.961Z,53.56
2019-03-28T09:03:43.903Z,53.33
2019-03-28T09:04:43.871Z,52.45
2019-03-28T09:05:43.874Z,50.89
2019-03-28T09:06:43.855Z,50.78
2019-03-28T09:07:43.857Z,49.63
2019-03-28T09:08:43.870Z,51.32
2019-03-28T09:09:43.816Z,51.86
2019-03-28T09:10:43.810Z,52.81
2019-03-28T09:11:43.820Z,51.98
2019-03-28T09:12:43.794Z,52.22
2019-03-28T09:13:43.775Z,52.32
2019-03-28T09:14:43.777Z,53.74
2019-03-28T09:15:53.860Z,52.99
2019-03-28T09:16:43.749Z,51.84
2019-03-28T09:17:43.738Z,51.89
2019-03-28T09:18:43.760Z,49.89
2019-03-28T09:19:43.709Z,48.97
2019-03-28T09:20:43.743Z,47.89
2019-03-28T09:21:43.694Z,46.60
2019-03-28T09:22:43.680Z,45.00
2019-03-28T09:23:43.686Z,43.41
2019-03-28T09:24:43.655Z,42.47
2019-03-28T09:25:43.673Z,41.27
2019-03-28T09:26:43.649Z,40.25
2019-03-28T09:27:43.636Z,40.51
2019-03-28T09:28:43.619Z,41.08
2019-03-28T09:29:43.608Z,40.03
2019-03-28T09:30:48.673Z,40.12
2019-03-28T09:31:44.595Z,39.23
2019-03-28T09:32:43.573Z,40.47
2019-03-28T09:33:43.565Z,40.06
2019-03-28T09:34:43.562Z,39.92
2019-03-28T09:35:43.664Z,44.06
2019-03-28T09:36:43.534Z,46.01
2019-03-28T09:37:43.519Z,45.80
2019-03-28T09:38:43.513Z,45.25
2019-03-28T09:39:43.550Z,45.23
2019-03-28T09:40:43.484Z,43.43
2019-03-28T09:41:43.479Z,42.04
2019-03-28T09:42:43.474Z,42.04
2019-03-28T09:43:54.645Z,43.38
2019-03-28T09:44:44.447Z,41.47
2019-03-28T09:45:43.439Z,40.80
2019-03-28T09:46:53.941Z,40.97
2019-03-28T09:47:43.406Z,41.35
2019-03-28T09:48:43.405Z,41.36
2019-03-28T09:49:43.397Z,40.36
2019-03-28T09:50:43.381Z,41.79
2019-03-28T09:51:43.403Z,42.24
2019-03-28T09:52:43.354Z,42.28
2019-03-28T09:53:43.354Z,42.05
2019-03-28T09:54:43.338Z,42.58
2019-03-28T09:55:43.328Z,42.18
2019-03-28T09:56:43.312Z,43.65
2019-03-28T09:57:43.317Z,44.39
2019-03-28T09:58:43.304Z,45.21
2019-03-28T09:59:43.278Z,44.06
2019-03-28T10:00:43.272Z,44.04
2019-03-28T10:01:43.269Z,44.49
2019-03-28T10:02:44.246Z,43.49
2019-03-28T10:03:43.237Z,43.44
2019-03-28T10:04:43.242Z,40.97
2019-03-28T10:05:43.215Z,40.75
2019-03-28T10:06:43.207Z,40.22
2019-03-28T10:07:43.234Z,39.64
2019-03-28T10:08:43.200Z,36.83
2019-03-28T10:09:43.188Z,35.99
2019-03-28T10:10:43.162Z,35.51
2019-03-28T10:11:43.152Z,36.47
2019-03-28T10:12:44.188Z,38.39
2019-03-28T10:13:43.137Z,39.97
2019-03-28T10:14:43.119Z,40.16
2019-03-28T10:15:43.824Z,39.75
2019-03-28T10:16:43.140Z,40.08
2019-03-28T10:17:53.395Z,40.46
2019-03-28T10:18:43.086Z,39.87
2019-03-28T10:19:43.100Z,40.83
2019-03-28T10:20:43.059Z,41.15
2019-03-28T10:21:43.050Z,41.66
2019-03-28T10:22:43.042Z,42.28
2019-03-28T10:23:44.336Z,42.36
2019-03-28T10:24:43.016Z,42.16
2019-03-28T10:25:43.297Z,42.46
2019-03-28T10:26:42.992Z,42.16
2019-03-28T10:27:42.981Z,41.87
2019-03-28T10:28:42.977Z,41.46
2019-03-28T10:29:42.960Z,40.56
2019-03-28T10:30:43.007Z,39.54
2019-03-28T10:31:42.959Z,39.22
2019-03-28T10:32:42.935Z,39.54
2019-03-28T10:33:42.920Z,39.36
2019-03-28T10:34:42.907Z,39.44
2019-03-28T10:35:43.042Z,38.64
2019-03-28T10:36:42.895Z,38.75
2019-03-28T10:37:42.874Z,40.09
2019-03-28T10:38:42.867Z,39.56
2019-03-28T10:39:42.855Z,41.95
2019-03-28T10:40:42.856Z,40.77
2019-03-28T10:41:42.850Z,39.87
2019-03-28T10:42:42.828Z,40.21
2019-03-28T10:43:42.817Z,40.11
2019-03-28T10:44:42.804Z,40.72
2019-03-28T10:45:42.787Z,42.24
2019-03-28T10:46:42.786Z,43.26
2019-03-28T10:47:42.780Z,42.66
2019-03-28T10:48:54.426Z,43.63
2019-03-28T10:49:42.746Z,42.48
2019-03-28T10:50:45.719Z,43.94
2019-03-28T10:51:42.729Z,44.71
2019-03-28T10:52:42.751Z,43.07
2019-03-28T10:53:42.703Z,42.65
2019-03-28T10:54:42.697Z,43.53
2019-03-28T10:55:42.817Z,41.48
2019-03-28T10:56:51.848Z,41.11
2019-03-28T10:57:43.769Z,43.67
2019-03-28T10:58:42.880Z,44.08
2019-03-28T10:59:43.056Z,43.38
2019-03-28T11:00:42.634Z,43.81
2019-03-28T11:01:49.991Z,43.52
2019-03-28T11:02:43.609Z,43.94
2019-03-28T11:03:42.611Z,43.32
2019-03-28T11:04:42.589Z,44.68
2019-03-28T11:05:42.581Z,44.06
2019-03-28T11:06:42.571Z,44.02
2019-03-28T11:07:42.606Z,43.51
2019-03-28T11:08:42.758Z,43.07
2019-03-28T11:09:42.566Z,43.40
2019-03-28T11:10:42.520Z,43.32
2019-03-28T11:11:42.519Z,43.75
2019-03-28T11:12:42.506Z,43.42
2019-03-28T11:13:42.537Z,43.16
2019-03-28T11:14:42.483Z,40.27
2019-03-28T11:15:42.464Z,42.07
2019-03-28T11:16:42.461Z,42.97
2019-03-28T11:17:42.458Z,42.15
2019-03-28T11:18:42.435Z,42.13
2019-03-28T11:19:55.802Z,42.24
2019-03-28T11:20:42.420Z,44.12
2019-03-28T11:21:42.404Z,44.04
2019-03-28T11:22:42.392Z,43.61
2019-03-28T11:23:42.379Z,44.20
2019-03-28T11:24:42.376Z,43.81
2019-03-28T11:25:42.366Z,45.37
2019-03-28T11:26:42.355Z,45.29
2019-03-28T11:27:42.339Z,44.88
2019-03-28T11:28:42.511Z,43.75
2019-03-28T11:29:42.317Z,45.70
2019-03-28T11:30:42.341Z,44.78
2019-03-28T11:31:46.928Z,45.40
2019-03-28T11:32:43.282Z,44.39
2019-03-28T11:33:42.276Z,45.34
2019-03-28T11:34:42.259Z,46.59
2019-03-28T11:35:42.253Z,46.39
2019-03-28T11:36:42.254Z,46.08
2019-03-28T11:37:42.239Z,45.64
2019-03-28T11:38:42.218Z,45.83
2019-03-28T11:39:42.214Z,46.24
2019-03-28T11:40:43.016Z,44.78
2019-03-28T11:41:42.183Z,43.71
2019-03-28T11:42:42.179Z,43.16
2019-03-28T11:43:42.160Z,41.89
2019-03-28T11:44:42.167Z,40.62
2019-03-28T11:45:42.217Z,40.40
2019-03-28T11:46:42.142Z,41.05
2019-03-28T11:47:42.147Z,40.76
2019-03-28T11:48:42.116Z,41.19
2019-03-28T11:49:42.099Z,42.15
2019-03-28T11:50:52.150Z,43.16
2019-03-28T11:51:42.115Z,42.19
2019-03-28T11:52:42.801Z,41.38
2019-03-28T11:53:42.060Z,41.27
2019-03-28T11:54:42.046Z,40.79
2019-03-28T11:55:42.033Z,39.22
2019-03-28T11:56:42.023Z,39.42
2019-03-28T11:57:42.036Z,39.12
2019-03-28T11:58:42.000Z,38.95
2019-03-28T11:59:41.995Z,39.44
2019-03-28T12:00:42.509Z,39.99
2019-03-28T12:01:41.979Z,39.97
2019-03-28T12:02:42.032Z,40.19
2019-03-28T12:03:42.033Z,40.01
2019-03-28T12:04:41.941Z,41.44
2019-03-28T12:05:41.947Z,40.60
2019-03-28T12:06:41.927Z,40.91
2019-03-28T12:07:41.911Z,39.87
2019-03-28T12:08:41.897Z,40.30
2019-03-28T12:09:41.933Z,40.95
2019-03-28T12:10:41.882Z,40.95
2019-03-28T12:11:41.913Z,42.18
2019-03-28T12:12:41.869Z,41.50
2019-03-28T12:13:45.119Z,41.68
2019-03-28T12:14:41.836Z,42.54
2019-03-28T12:15:41.845Z,43.88
2019-03-28T12:16:41.851Z,43.59
2019-03-28T12:17:41.829Z,44.24
2019-03-28T12:18:41.837Z,44.56
2019-03-28T12:19:41.849Z,45.13
2019-03-28T12:20:41.795Z,45.52
2019-03-28T12:21:52.199Z,45.81
2019-03-28T12:22:41.747Z,45.70
2019-03-28T12:23:41.732Z,45.50
2019-03-28T12:24:41.749Z,45.95
2019-03-28T12:25:41.718Z,46.03
2019-03-28T12:26:41.703Z,46.03
2019-03-28T12:27:41.703Z,45.95
2019-03-28T12:28:41.761Z,46.47
2019-03-28T12:29:41.670Z,45.95
2019-03-28T12:30:41.904Z,45.52
2019-03-28T12:31:41.645Z,44.35
2019-03-28T12:32:41.642Z,44.56
2019-03-28T12:33:41.626Z,44.14
2019-03-28T12:34:41.627Z,44.74
2019-03-28T12:35:41.605Z,44.65
2019-03-28T12:36:41.600Z,44.98
2019-03-28T12:37:41.580Z,44.96
2019-03-28T12:38:41.571Z,44.86
2019-03-28T12:39:41.565Z,43.71
2019-03-28T12:40:41.560Z,44.76
2019-03-28T12:41:41.577Z,45.70
2019-03-28T12:42:41.537Z,44.56
2019-03-28T12:43:41.522Z,44.82
2019-03-28T12:44:41.507Z,42.73
2019-03-28T12:45:41.503Z,42.40
2019-03-28T12:46:41.481Z,41.25
2019-03-28T12:47:43.027Z,39.42
2019-03-28T12:48:41.463Z,38.57
2019-03-28T12:49:41.454Z,37.82
2019-03-28T12:50:41.442Z,37.74
2019-03-28T12:51:41.441Z,36.80
2019-03-28T12:52:52.104Z,38.39